Time;durP1;ratioP1;P1;durP2;ratioP2;P2;SDS_P1;SDS_P2;PMS_P1;PMS_P2;Temp;Humidity;BMP_temperature;BMP_pressure;BME280_temperature;BME280_humidity;BME280_pressure;Samples;Min_cycle;Max_cycle;Signal;HPM_P1;HPM_P2
2023/10/17 00:02:00;;;;;;;0.30;0.30;;;2.70;99.90;;;;;;5023270;28;20184;-81
2023/10/17 00:04:27;;;;;;;0.32;0.25;;;2.70;99.90;;;;;;5025009;28;20178;-82
2023/10/17 00:06:54;;;;;;;0.50;0.50;;;2.50;99.90;;;;;;5023276;28;20204;-82
2023/10/17 00:09:29;;;;;;;0.30;0.30;;;2.70;99.90;;;;;;5037298;28;20177;-82
2023/10/17 00:14:32;;;;;;;0.40;0.30;;;2.70;99.90;;;;;;5036571;28;20833;-80
2023/10/17 00:16:57;;;;;;;0.95;0.82;;;2.80;99.90;;;;;;5026119;28;20221;-79
2023/10/17 00:19:26;;;;;;;0.37;0.27;;;2.80;99.90;;;;;;5039765;28;20182;-80
2023/10/17 00:21:52;;;;;;;0.40;0.30;;;2.90;99.90;;;;;;5042791;28;20504;-80
2023/10/17 00:24:19;;;;;;;0.40;0.40;;;2.90;99.90;;;;;;5045734;28;20201;-80
2023/10/17 00:26:47;;;;;;;0.30;0.20;;;2.90;99.90;;;;;;5038642;28;20239;-83
2023/10/17 00:29:13;;;;;;;0.40;0.30;;;2.90;99.90;;;;;;5030204;28;20541;-79
2023/10/17 00:31:39;;;;;;;0.40;0.30;;;2.90;99.90;;;;;;5030708;28;20240;-81
2023/10/17 00:34:21;;;;;;;1.80;1.70;;;3.00;99.90;;;;;;5031829;28;20190;-82
2023/10/17 00:36:48;;;;;;;0.40;0.30;;;3.00;99.90;;;;;;5030939;28;20286;-83
2023/10/17 00:39:29;;;;;;;0.40;0.30;;;3.00;99.90;;;;;;5032377;28;20186;-82
2023/10/17 00:44:39;;;;;;;0.60;0.60;;;3.00;99.90;;;;;;5043990;28;20204;-81
2023/10/17 00:47:08;;;;;;;0.60;0.60;;;3.00;99.90;;;;;;5038938;28;20223;-77
2023/10/17 00:49:42;;;;;;;0.40;0.30;;;3.00;99.90;;;;;;5049494;28;20190;-83
2023/10/17 00:52:32;;;;;;;2.25;1.10;;;3.00;99.90;;;;;;5045767;28;20233;-81
2023/10/17 00:54:59;;;;;;;0.82;0.82;;;3.00;99.90;;;;;;5018864;28;20754;-79
2023/10/17 00:57:28;;;;;;;1.33;1.23;;;3.10;99.90;;;;;;5032564;28;20643;-79
2023/10/17 01:00:08;;;;;;;1.35;1.35;;;3.10;99.90;;;;;;5029238;28;20185;-78
2023/10/17 01:02:44;;;;;;;0.95;0.65;;;3.10;99.90;;;;;;5027466;28;20272;-81
2023/10/17 01:05:14;;;;;;;0.40;0.30;;;3.10;99.90;;;;;;5027948;28;20228;-77
2023/10/17 01:07:40;;;;;;;0.40;0.30;;;3.00;99.90;;;;;;5041361;28;20193;-80
2023/10/17 01:10:16;;;;;;;0.30;0.30;;;3.00;99.90;;;;;;5043522;28;20487;-82
2023/10/17 01:12:52;;;;;;;0.30;0.30;;;3.00;99.90;;;;;;5026216;28;20189;-78
2023/10/17 01:15:28;;;;;;;0.40;0.30;;;2.90;99.90;;;;;;5027388;28;20200;-81
2023/10/17 01:17:54;;;;;;;0.65;0.65;;;2.80;99.90;;;;;;5043737;28;21402;-82
2023/10/17 01:20:20;;;;;;;0.63;0.63;;;2.80;99.90;;;;;;5032087;28;20239;-80
2023/10/17 01:22:47;;;;;;;0.40;0.30;;;2.90;99.90;;;;;;5054525;28;20184;-84
2023/10/17 01:25:26;;;;;;;0.30;0.20;;;2.60;99.90;;;;;;5034197;28;20185;-80
2023/10/17 01:27:52;;;;;;;0.40;0.30;;;2.40;99.90;;;;;;5055526;28;20276;-81
2023/10/17 01:30:19;;;;;;;0.30;0.30;;;2.40;99.90;;;;;;5044024;28;20212;-81
2023/10/17 01:32:46;;;;;;;0.47;0.45;;;2.40;99.90;;;;;;5045926;28;20185;-81
2023/10/17 01:35:12;;;;;;;0.40;0.30;;;2.40;99.90;;;;;;5035339;28;20302;-76
2023/10/17 01:37:38;;;;;;;0.40;0.30;;;3.10;99.90;;;;;;5034423;28;20233;-81
2023/10/17 01:40:18;;;;;;;0.37;0.30;;;2.30;99.90;;;;;;5034954;28;20193;-82
2023/10/17 01:42:43;;;;;;;0.50;0.50;;;2.30;99.90;;;;;;5031917;28;20285;-80
2023/10/17 01:45:13;;;;;;;0.30;0.20;;;2.40;99.90;;;;;;5046503;28;20699;-83
2023/10/17 01:47:38;;;;;;;0.40;0.30;;;2.40;99.90;;;;;;5049088;28;20208;-82
2023/10/17 01:50:08;;;;;;;0.30;0.20;;;2.30;99.90;;;;;;5030158;28;20198;-82
2023/10/17 01:52:35;;;;;;;0.40;0.30;;;2.10;99.90;;;;;;5029098;28;20287;-83
2023/10/17 01:55:01;;;;;;;1.05;0.95;;;2.20;99.90;;;;;;5032045;28;20181;-82
2023/10/17 01:57:29;;;;;;;0.30;0.30;;;2.10;99.90;;;;;;5035483;28;20200;-84
2023/10/17 01:59:54;;;;;;;0.40;0.30;;;2.00;99.90;;;;;;5033955;28;20335;-81
2023/10/17 02:02:23;;;;;;;1.47;1.40;;;1.90;99.90;;;;;;5033491;28;20311;-80
2023/10/17 02:04:50;;;;;;;0.30;0.30;;;1.80;99.90;;;;;;5033766;28;20188;-78
2023/10/17 02:07:16;;;;;;;0.30;0.30;;;1.80;99.90;;;;;;5038439;28;20202;-80
2023/10/17 02:12:10;;;;;;;0.30;0.28;;;1.70;99.90;;;;;;5036851;28;20206;-80
2023/10/17 02:14:37;;;;;;;0.30;0.20;;;1.80;99.90;;;;;;5044381;28;20190;-80
2023/10/17 02:17:03;;;;;;;0.73;0.73;;;1.70;99.90;;;;;;5031826;28;20202;-81
2023/10/17 02:19:32;;;;;;;0.30;0.30;;;1.70;99.90;;;;;;5059747;28;20560;-78
2023/10/17 02:22:01;;;;;;;2.25;2.15;;;1.80;99.90;;;;;;5023458;28;20181;-82
2023/10/17 02:24:29;;;;;;;0.40;0.30;;;1.90;99.90;;;;;;5042035;28;20636;-82
2023/10/17 02:27:00;;;;;;;0.30;0.20;;;2.00;99.90;;;;;;5021961;28;20214;-83
2023/10/17 02:29:29;;;;;;;0.30;0.30;;;2.00;99.90;;;;;;5024558;28;20193;-83
2023/10/17 02:31:55;;;;;;;0.30;0.20;;;2.10;99.90;;;;;;5053065;28;20205;-83
2023/10/17 02:34:22;;;;;;;0.30;0.20;;;2.00;99.90;;;;;;5036692;28;20194;-81
2023/10/17 02:36:49;;;;;;;0.30;0.30;;;2.00;99.90;;;;;;5033211;28;20205;-82
2023/10/17 02:39:15;;;;;;;0.40;0.30;;;1.90;99.90;;;;;;5034326;28;20209;-81
2023/10/17 02:41:46;;;;;;;0.38;0.30;;;1.90;99.90;;;;;;5027660;28;20557;-81
2023/10/17 02:44:19;;;;;;;0.30;0.20;;;1.90;99.90;;;;;;5048059;28;20320;-81
2023/10/17 02:46:44;;;;;;;0.30;0.20;;;1.90;99.90;;;;;;5020771;28;20202;-80
2023/10/17 02:49:13;;;;;;;2.23;1.07;;;1.90;99.90;;;;;;5018453;28;20194;-82
2023/10/17 02:51:42;;;;;;;0.30;0.30;;;1.90;99.90;;;;;;5031848;28;20820;-82
2023/10/17 02:54:12;;;;;;;0.47;0.47;;;1.90;99.90;;;;;;5023248;28;20186;-84
2023/10/17 02:56:38;;;;;;;0.30;0.30;;;2.00;99.90;;;;;;5019253;28;20288;-83
2023/10/17 02:59:06;;;;;;;0.73;0.45;;;2.00;99.90;;;;;;5040168;28;20250;-83
2023/10/17 03:01:32;;;;;;;0.32;0.28;;;2.00;99.90;;;;;;5010806;28;20190;-83
2023/10/17 03:03:59;;;;;;;0.30;0.30;;;1.90;99.90;;;;;;5018389;28;20201;-82
2023/10/17 03:06:25;;;;;;;0.30;0.20;;;1.90;99.90;;;;;;5028749;28;20228;-83
2023/10/17 03:09:00;;;;;;;0.30;0.20;;;1.80;99.90;;;;;;5026819;28;20555;-83
2023/10/17 03:11:35;;;;;;;0.40;0.30;;;1.80;99.90;;;;;;5036137;28;20472;-84
2023/10/17 03:14:10;;;;;;;0.40;0.30;;;1.80;99.90;;;;;;5017859;28;20279;-84
2023/10/17 03:16:39;;;;;;;0.30;0.30;;;1.90;99.90;;;;;;5017409;28;20204;-85
2023/10/17 03:19:05;;;;;;;0.30;0.30;;;1.90;99.90;;;;;;5028496;28;20205;-85
2023/10/17 03:21:34;;;;;;;0.30;0.23;;;2.00;99.90;;;;;;5035293;28;20228;-83
2023/10/17 03:24:05;;;;;;;0.30;0.20;;;2.10;99.90;;;;;;5027558;28;20198;-83
2023/10/17 03:26:42;;;;;;;0.32;0.30;;;2.10;99.90;;;;;;5030334;28;20296;-82
2023/10/17 03:29:14;;;;;;;0.40;0.30;;;2.20;99.90;;;;;;5021480;28;20185;-83
2023/10/17 03:31:42;;;;;;;0.35;0.35;;;2.30;99.90;;;;;;5020200;28;20214;-83
2023/10/17 03:34:12;;;;;;;0.40;0.30;;;2.40;99.90;;;;;;5020781;28;20192;-83
2023/10/17 03:36:41;;;;;;;1.75;1.65;;;2.50;99.90;;;;;;5015676;28;20209;-82
2023/10/17 03:39:27;;;;;;;0.30;0.30;;;2.50;99.90;;;;;;5026774;28;20181;-82
2023/10/17 03:41:56;;;;;;;0.30;0.20;;;2.50;99.90;;;;;;5022886;28;20276;-82
2023/10/17 03:44:38;;;;;;;0.30;0.30;;;2.60;99.90;;;;;;5040007;28;20189;-83
2023/10/17 03:47:04;;;;;;;0.40;0.30;;;2.70;99.90;;;;;;5021697;28;20207;-84
2023/10/17 03:49:39;;;;;;;0.30;0.30;;;2.90;99.90;;;;;;5015706;28;20193;-84
2023/10/17 03:52:06;;;;;;;0.30;0.30;;;2.90;99.90;;;;;;5023232;28;20332;-82
2023/10/17 03:54:38;;;;;;;0.30;0.30;;;3.00;99.90;;;;;;5041573;28;20556;-83
2023/10/17 03:57:13;;;;;;;0.30;0.20;;;2.90;99.90;;;;;;5042439;28;20227;-83
2023/10/17 03:59:41;;;;;;;0.30;0.30;;;2.80;99.90;;;;;;5043364;28;20331;-84
2023/10/17 04:02:18;;;;;;;0.32;0.30;;;2.80;99.90;;;;;;5021261;28;21949;-84
2023/10/17 04:04:52;;;;;;;0.30;0.30;;;2.60;99.90;;;;;;5015430;28;20193;-83
2023/10/17 04:07:21;;;;;;;0.30;0.20;;;2.80;99.90;;;;;;5015515;28;20301;-84
2023/10/17 04:09:53;;;;;;;0.35;0.30;;;2.40;99.90;;;;;;5032755;28;20189;-85
2023/10/17 04:15:09;;;;;;;0.32;0.20;;;2.60;99.90;;;;;;5014713;28;20277;-84
2023/10/17 04:17:36;;;;;;;0.40;0.30;;;2.80;99.90;;;;;;5027533;28;20209;-82
2023/10/17 04:20:11;;;;;;;0.40;0.30;;;2.90;99.90;;;;;;5045298;28;20482;-84
2023/10/17 04:22:40;;;;;;;0.40;0.30;;;2.90;99.90;;;;;;5023912;28;20216;-84
2023/10/17 04:25:34;;;;;;;0.38;0.30;;;3.00;99.90;;;;;;5013370;28;20277;-83
2023/10/17 04:28:01;;;;;;;1.48;1.27;;;3.10;99.90;;;;;;5030815;28;20213;-85
2023/10/17 04:30:34;;;;;;;0.40;0.30;;;3.80;99.90;;;;;;5014766;28;20189;-83
2023/10/17 04:33:09;;;;;;;0.30;0.20;;;3.40;99.90;;;;;;5024770;28;20189;-83
2023/10/17 04:35:48;;;;;;;0.65;0.65;;;3.50;99.90;;;;;;5015167;28;20193;-83
2023/10/17 04:40:50;;;;;;;0.30;0.22;;;3.70;99.90;;;;;;5019830;28;20189;-84
2023/10/17 04:46:08;;;;;;;0.40;0.30;;;3.80;99.90;;;;;;5014155;28;20305;-79
2023/10/17 04:48:36;;;;;;;0.30;0.30;;;3.80;99.90;;;;;;5036884;28;20419;-79
2023/10/17 04:51:31;;;;;;;0.30;0.20;;;3.80;99.90;;;;;;5035025;28;20201;-81
2023/10/17 04:53:48;;;;;;;0.43;0.43;;;3.80;99.90;;;;;;5039462;28;20217;-79
2023/10/17 04:56:16;;;;;;;0.60;0.60;;;3.80;99.90;;;;;;5025522;28;20214;-83
2023/10/17 04:58:53;;;;;;;0.30;0.20;;;3.80;99.90;;;;;;5034494;28;20182;-80
2023/10/17 05:01:35;;;;;;;0.65;0.65;;;3.90;99.90;;;;;;5026214;28;20212;-79
2023/10/17 06:17:48;;;;;;;0.30;0.30;;;2.50;99.90;;;;;;5038173;28;20212;-84
2023/10/17 06:20:17;;;;;;;0.30;0.22;;;2.60;99.90;;;;;;5032496;28;20182;-78
2023/10/17 06:28:25;;;;;;;1.77;0.82;;;2.90;99.90;;;;;;5025461;28;20236;-84
2023/10/17 06:33:35;;;;;;;0.32;0.28;;;3.30;99.90;;;;;;5027016;28;20196;-82
2023/10/17 06:36:24;;;;;;;0.30;0.28;;;3.60;99.90;;;;;;5024469;28;20203;-82
2023/10/17 06:38:50;;;;;;;0.30;0.22;;;3.60;99.90;;;;;;5026851;28;20196;-79
2023/10/17 06:41:27;;;;;;;1.00;0.93;;;3.80;99.90;;;;;;5028727;28;20193;-81
2023/10/17 06:43:54;;;;;;;1.42;1.38;;;3.90;99.90;;;;;;5025575;28;20192;-82
2023/10/17 06:46:28;;;;;;;0.32;0.30;;;4.10;99.90;;;;;;5028309;28;20197;-82
2023/10/17 06:48:57;;;;;;;0.70;0.70;;;4.30;99.90;;;;;;5022986;28;20193;-81
2023/10/17 06:51:30;;;;;;;0.35;0.22;;;4.30;99.90;;;;;;5041838;28;20220;-80
2023/10/17 06:54:06;;;;;;;0.40;0.30;;;4.30;99.90;;;;;;5022594;28;20820;-82
2023/10/17 06:56:32;;;;;;;0.40;0.30;;;4.40;99.90;;;;;;5026422;28;20205;-81
2023/10/17 06:59:04;;;;;;;0.77;0.77;;;4.60;99.90;;;;;;5047071;28;20665;-84
2023/10/17 07:01:33;;;;;;;0.40;0.30;;;4.80;99.90;;;;;;5027461;28;20216;-82
2023/10/17 07:04:01;;;;;;;0.30;0.30;;;4.90;99.90;;;;;;5022501;28;20228;-82
2023/10/17 07:06:27;;;;;;;0.40;0.30;;;5.00;99.90;;;;;;5011613;28;20920;-82
2023/10/17 07:08:53;;;;;;;0.45;0.45;;;5.20;99.90;;;;;;5020163;28;21035;-84
2023/10/17 07:13:54;;;;;;;0.40;0.40;;;5.50;99.90;;;;;;5031726;28;20420;-77
2023/10/17 07:16:32;;;;;;;0.30;0.30;;;5.70;99.90;;;;;;5048226;28;20201;-85
2023/10/17 07:19:09;;;;;;;0.85;0.85;;;5.80;99.90;;;;;;5029134;28;20187;-82
2023/10/17 07:21:55;;;;;;;0.40;0.30;;;6.00;99.90;;;;;;5037328;28;20201;-79
2023/10/17 07:24:25;;;;;;;0.60;0.60;;;6.20;99.90;;;;;;5027692;28;20228;-82
2023/10/17 07:26:53;;;;;;;1.35;1.20;;;6.40;99.90;;;;;;5023316;28;20324;-82
2023/10/17 07:29:22;;;;;;;0.63;0.63;;;6.50;99.90;;;;;;5046967;28;20690;-78
2023/10/17 07:31:54;;;;;;;0.40;0.30;;;6.60;99.90;;;;;;5023975;28;20213;-84
2023/10/17 07:34:21;;;;;;;0.40;0.40;;;6.80;99.90;;;;;;5019143;28;20181;-84
2023/10/17 07:36:50;;;;;;;0.30;0.30;;;6.90;99.90;;;;;;5018081;28;20201;-83
2023/10/17 07:39:22;;;;;;;0.90;0.88;;;6.90;99.90;;;;;;5011693;28;20201;-81
2023/10/17 07:41:53;;;;;;;0.30;0.20;;;7.10;99.90;;;;;;5039085;28;21253;-78
2023/10/17 07:44:22;;;;;;;0.30;0.20;;;7.40;99.90;;;;;;5014801;28;20251;-84
2023/10/17 07:46:50;;;;;;;0.40;0.32;;;7.70;99.90;;;;;;5039936;28;20212;-78
2023/10/17 07:49:25;;;;;;;0.40;0.20;;;7.90;99.90;;;;;;5024376;28;20280;-80
2023/10/17 07:51:51;;;;;;;0.40;0.32;;;8.10;99.90;;;;;;5026958;28;20200;-82
2023/10/17 07:54:16;;;;;;;0.35;0.28;;;8.20;99.90;;;;;;5024579;28;20470;-82
2023/10/17 07:56:50;;;;;;;0.67;0.67;;;8.50;99.90;;;;;;5026687;28;20800;-83
2023/10/17 07:59:16;;;;;;;0.52;0.52;;;8.80;99.90;;;;;;5019937;28;20367;-83
2023/10/17 08:01:43;;;;;;;0.40;0.20;;;9.00;99.90;;;;;;5017697;28;23118;-80
2023/10/17 08:04:18;;;;;;;0.40;0.30;;;9.10;99.90;;;;;;5020552;28;20190;-83
2023/10/17 08:06:50;;;;;;;0.40;0.40;;;9.40;99.90;;;;;;5023738;28;20320;-82
2023/10/17 08:09:23;;;;;;;0.40;0.30;;;9.90;99.90;;;;;;5045551;28;20185;-76
2023/10/17 08:11:53;;;;;;;0.57;0.43;;;9.70;99.90;;;;;;5042988;28;20208;-81
2023/10/17 08:14:31;;;;;;;0.50;0.40;;;9.70;99.90;;;;;;5032939;28;20193;-83
2023/10/17 08:16:58;;;;;;;1.95;1.65;;;9.70;99.90;;;;;;5017377;28;20216;-82
2023/10/17 08:19:29;;;;;;;0.40;0.30;;;9.80;99.90;;;;;;5019975;28;20186;-76
2023/10/17 08:27:17;;;;;;;0.40;0.30;;;;;;;;;;5031939;28;20214;-81
2023/10/17 08:29:45;;;;;;;0.40;0.35;;;;;;;;;;5033122;28;20182;-76
2023/10/17 08:35:00;;;;;;;3.28;0.50;;;9.50;99.90;;;;;;5034429;28;20208;-78
2023/10/17 08:37:28;;;;;;;0.40;0.30;;;9.50;99.90;;;;;;5020771;28;20206;-81
2023/10/17 08:39:53;;;;;;;0.40;0.40;;;9.50;99.90;;;;;;5047165;28;20201;-79
2023/10/17 08:42:30;;;;;;;2.00;0.73;;;9.60;99.90;;;;;;5034723;28;20185;-78
2023/10/17 08:44:57;;;;;;;0.40;0.40;;;10.70;99.90;;;;;;5047473;28;21005;-81
2023/10/17 08:47:30;;;;;;;0.40;0.30;;;9.50;99.90;;;;;;5031956;28;20202;-79
2023/10/17 08:50:01;;;;;;;0.85;0.75;;;9.50;99.90;;;;;;5048046;28;20195;-81
2023/10/17 08:52:27;;;;;;;0.40;0.30;;;9.50;99.90;;;;;;5015767;28;20260;-80
2023/10/17 08:54:53;;;;;;;0.40;0.20;;;10.00;99.90;;;;;;5030331;28;20191;-83
2023/10/17 08:57:19;;;;;;;0.47;0.40;;;10.20;99.90;;;;;;5034265;28;20205;-79
2023/10/17 09:00:13;;;;;;;0.40;0.28;;;10.10;99.90;;;;;;5030144;28;20452;-81
2023/10/17 09:02:32;;;;;;;0.77;0.77;;;9.80;99.90;;;;;;5018073;28;20330;-81
2023/10/17 09:05:13;;;;;;;0.40;0.30;;;9.90;99.90;;;;;;5027915;28;20840;-80
2023/10/17 09:07:46;;;;;;;0.40;0.30;;;10.10;99.90;;;;;;5025201;28;20220;-82
2023/10/17 09:10:38;;;;;;;2.30;2.00;;;10.30;99.90;;;;;;5026739;28;20185;-81
2023/10/17 09:13:46;;;;;;;0.40;0.30;;;10.60;99.90;;;;;;5024509;28;20200;-83
2023/10/17 09:16:13;;;;;;;2.78;0.85;;;10.80;99.90;;;;;;5029532;28;20214;-81
2023/10/17 09:18:48;;;;;;;0.43;0.35;;;10.90;99.90;;;;;;5024986;28;20186;-81
2023/10/17 09:21:14;;;;;;;3.65;2.35;;;11.20;99.90;;;;;;5026168;28;20184;-79
2023/10/17 09:23:41;;;;;;;0.65;0.65;;;11.30;99.90;;;;;;5046013;28;20232;-82
2023/10/17 09:26:10;;;;;;;0.40;0.30;;;11.50;99.90;;;;;;5029354;28;20200;-83
2023/10/17 09:28:36;;;;;;;1.05;0.88;;;11.40;99.90;;;;;;5034778;28;20194;-82
2023/10/17 09:31:06;;;;;;;0.40;0.30;;;11.20;99.90;;;;;;5030144;28;20202;-77
2023/10/17 09:33:33;;;;;;;0.75;0.73;;;11.00;99.90;;;;;;5053502;28;20202;-84
2023/10/17 09:36:04;;;;;;;0.40;0.30;;;11.00;99.90;;;;;;5035380;28;20196;-81
2023/10/17 09:38:41;;;;;;;0.43;0.40;;;11.00;99.90;;;;;;5037181;28;20178;-77
2023/10/17 09:41:08;;;;;;;0.60;0.60;;;10.90;99.90;;;;;;5038658;28;20201;-77
2023/10/17 09:43:36;;;;;;;0.40;0.30;;;10.90;99.90;;;;;;5032273;28;20181;-82
2023/10/17 09:46:03;;;;;;;0.40;0.30;;;10.50;99.90;;;;;;5044132;28;20928;-83
2023/10/17 09:48:35;;;;;;;0.70;0.70;;;10.50;99.90;;;;;;5021371;28;20197;-81
2023/10/17 09:51:02;;;;;;;0.40;0.30;;;10.70;99.90;;;;;;5022503;28;20238;-82
2023/10/17 09:53:31;;;;;;;0.57;0.50;;;10.60;99.90;;;;;;5045549;28;20224;-83
2023/10/17 09:56:03;;;;;;;0.40;0.30;;;10.60;99.90;;;;;;5033568;28;20201;-80
2023/10/17 09:58:33;;;;;;;0.65;0.50;;;10.60;99.90;;;;;;5020698;28;20200;-81
2023/10/17 10:01:14;;;;;;;0.40;0.40;;;10.70;99.90;;;;;;5026390;28;20194;-80
2023/10/17 10:03:41;;;;;;;3.35;0.60;;;10.90;99.90;;;;;;5023662;28;20750;-81
2023/10/17 10:06:23;;;;;;;2.45;1.65;;;10.90;99.90;;;;;;5020372;28;20288;-80
2023/10/17 10:08:54;;;;;;;1.25;1.15;;;11.10;99.90;;;;;;5020037;28;20205;-81
2023/10/17 10:11:20;;;;;;;0.40;0.20;;;11.10;99.90;;;;;;5042547;28;20209;-83
2023/10/17 10:14:11;;;;;;;0.40;0.30;;;11.20;99.90;;;;;;5046520;28;20201;-82
2023/10/17 10:16:51;;;;;;;0.40;0.40;;;11.10;99.90;;;;;;5026095;28;20724;-80
2023/10/17 10:19:17;;;;;;;2.15;0.85;;;11.00;99.90;;;;;;5022812;28;20208;-83
2023/10/17 10:21:55;;;;;;;0.40;0.30;;;11.00;99.90;;;;;;5019576;28;20189;-82
2023/10/17 10:24:26;;;;;;;0.40;0.40;;;10.90;99.90;;;;;;5026748;28;20194;-81
2023/10/17 10:27:15;;;;;;;0.40;0.32;;;11.20;99.90;;;;;;5021531;28;20225;-79
2023/10/17 10:29:53;;;;;;;0.40;0.40;;;10.90;99.90;;;;;;5010232;28;20301;-83
2023/10/17 10:32:25;;;;;;;0.40;0.30;;;10.90;99.90;;;;;;5039209;28;20587;-81
2023/10/17 10:34:51;;;;;;;3.90;1.13;;;10.90;99.90;;;;;;5038563;28;20722;-83
2023/10/17 10:37:17;;;;;;;1.02;0.50;;;11.10;99.90;;;;;;5032224;28;21104;-82
2023/10/17 10:40:22;;;;;;;0.40;0.30;;;11.20;99.90;;;;;;5032899;28;20181;-79
2023/10/17 10:42:50;;;;;;;1.05;1.00;;;11.10;99.90;;;;;;5029625;28;20220;-84
2023/10/17 10:45:36;;;;;;;0.40;0.30;;;11.30;99.90;;;;;;5037035;28;20198;-80
2023/10/17 10:48:18;;;;;;;1.63;1.50;;;11.30;99.90;;;;;;5026632;28;20267;-84
2023/10/17 10:50:46;;;;;;;0.40;0.30;;;11.20;99.90;;;;;;5050584;28;20200;-80
2023/10/17 10:53:22;;;;;;;0.40;0.20;;;11.30;99.90;;;;;;5041199;28;20189;-80
2023/10/17 10:56:01;;;;;;;0.40;0.30;;;11.30;99.90;;;;;;5034597;28;20185;-79
2023/10/17 10:58:28;;;;;;;0.40;0.30;;;11.40;99.90;;;;;;5023665;28;20193;-80
2023/10/17 11:00:54;;;;;;;0.50;0.40;;;11.50;99.90;;;;;;5026531;28;20185;-81
2023/10/17 11:03:23;;;;;;;1.25;0.93;;;11.70;99.90;;;;;;5023457;28;20275;-84
2023/10/17 11:05:57;;;;;;;0.50;0.40;;;12.00;99.90;;;;;;5022050;28;20217;-83
2023/10/17 11:08:24;;;;;;;0.85;0.63;;;11.90;99.90;;;;;;5040552;28;20289;-79
2023/10/17 11:10:50;;;;;;;2.15;2.05;;;;;;;;;;5033531;28;20205;-79
2023/10/17 11:13:16;;;;;;;0.52;0.47;;;12.20;99.90;;;;;;5027756;28;20230;-81
2023/10/17 11:15:46;;;;;;;2.30;1.20;;;12.30;99.90;;;;;;5030846;28;21198;-80
2023/10/17 11:18:12;;;;;;;0.40;0.20;;;12.40;99.90;;;;;;5039196;28;20861;-82
2023/10/17 11:20:44;;;;;;;0.40;0.30;;;12.00;99.90;;;;;;5024841;28;20272;-80
2023/10/17 11:23:13;;;;;;;0.93;0.93;;;12.10;99.90;;;;;;5043688;28;20449;-81
2023/10/17 11:25:45;;;;;;;1.05;1.05;;;12.50;99.90;;;;;;5033742;28;20201;-83
2023/10/17 11:28:11;;;;;;;1.02;0.82;;;12.60;99.90;;;;;;5041551;28;20301;-81
2023/10/17 11:30:42;;;;;;;0.40;0.30;;;12.60;99.90;;;;;;5039606;28;20178;-82
2023/10/17 11:33:16;;;;;;;1.40;1.30;;;12.70;99.90;;;;;;5028184;28;20185;-80
2023/10/17 11:35:52;;;;;;;0.93;0.70;;;12.70;99.90;;;;;;5031939;28;20644;-80
2023/10/17 11:38:40;;;;;;;0.40;0.30;;;12.70;99.90;;;;;;5041422;28;20344;-83
2023/10/17 11:41:07;;;;;;;1.30;1.20;;;12.90;99.90;;;;;;5043396;28;20609;-83
2023/10/17 11:43:53;;;;;;;0.40;0.30;;;13.20;99.90;;;;;;5026052;28;20189;-79
2023/10/17 11:46:32;;;;;;;0.40;0.30;;;13.20;99.90;;;;;;5028619;28;20467;-78
2023/10/17 11:49:29;;;;;;;1.30;0.83;;;13.40;99.90;;;;;;5031355;28;20454;-82
2023/10/17 11:52:04;;;;;;;0.40;0.30;;;13.60;99.90;;;;;;5026555;28;20483;-81
2023/10/17 11:54:30;;;;;;;0.60;0.60;;;;;;;;;;5032347;28;20486;-79
2023/10/17 11:57:07;;;;;;;0.40;0.30;;;13.80;99.90;;;;;;5016923;28;20973;-81
2023/10/17 11:59:33;;;;;;;0.40;0.30;;;13.70;99.90;;;;;;5016931;28;20578;-80
2023/10/17 12:02:02;;;;;;;0.40;0.30;;;13.70;99.90;;;;;;5036950;28;20971;-81
2023/10/17 12:04:29;;;;;;;0.60;0.47;;;13.70;99.90;;;;;;5022636;28;20177;-81
2023/10/17 12:06:55;;;;;;;0.40;0.30;;;13.70;99.90;;;;;;5021046;28;20228;-80
2023/10/17 12:09:23;;;;;;;0.70;0.60;;;13.20;99.90;;;;;;5033776;28;20610;-83
2023/10/17 12:11:50;;;;;;;0.40;0.30;;;13.20;99.90;;;;;;5024741;28;21131;-80
2023/10/17 12:14:19;;;;;;;0.40;0.33;;;13.30;99.90;;;;;;5023916;28;20249;-79
2023/10/17 12:16:54;;;;;;;0.70;0.43;;;13.50;99.90;;;;;;5026365;28;20468;-80
2023/10/17 12:19:21;;;;;;;0.40;0.20;;;13.70;99.90;;;;;;5028752;28;20188;-81
2023/10/17 12:21:48;;;;;;;0.60;0.60;;;13.90;99.90;;;;;;5037264;28;20451;-84
2023/10/17 12:24:19;;;;;;;0.87;0.70;;;14.20;99.90;;;;;;5027718;28;20482;-78
2023/10/17 12:26:46;;;;;;;1.03;1.00;;;14.50;99.90;;;;;;5028335;28;20467;-80
2023/10/17 12:29:12;;;;;;;1.33;1.13;;;14.40;99.90;;;;;;5021240;28;20443;-79
2023/10/17 12:31:39;;;;;;;0.70;0.40;;;14.10;99.90;;;;;;5044775;28;20562;-79
2023/10/17 12:34:07;;;;;;;0.60;0.53;;;13.90;99.90;;;;;;5018899;28;21339;-81
2023/10/17 12:36:36;;;;;;;0.87;0.87;;;13.50;99.90;;;;;;5028037;28;21032;-82
2023/10/17 12:39:08;;;;;;;0.40;0.30;;;13.70;99.90;;;;;;5024869;28;20440;-80
2023/10/17 12:41:36;;;;;;;0.60;0.57;;;13.60;99.90;;;;;;5020488;28;20471;-80
2023/10/17 12:44:03;;;;;;;0.40;0.30;;;13.60;99.90;;;;;;5040827;28;20448;-80
2023/10/17 12:46:29;;;;;;;2.20;1.57;;;13.50;99.90;;;;;;5024409;28;20460;-80
2023/10/17 12:48:54;;;;;;;1.40;1.13;;;13.40;99.90;;;;;;5042888;28;20454;-81
2023/10/17 12:51:23;;;;;;;4.83;1.47;;;13.20;99.90;;;;;;5024816;28;20238;-80
2023/10/17 12:53:49;;;;;;;0.40;0.30;;;12.80;99.90;;;;;;5054003;28;20224;-81
2023/10/17 12:56:15;;;;;;;0.65;0.65;;;13.00;99.90;;;;;;5050793;28;20480;-79
2023/10/17 12:58:41;;;;;;;1.75;0.75;;;13.00;99.90;;;;;;5028385;28;20757;-82
2023/10/17 13:01:07;;;;;;;0.40;0.40;;;13.00;99.90;;;;;;5034679;28;20181;-75
2023/10/17 13:03:38;;;;;;;1.05;1.05;;;13.00;99.90;;;;;;5027003;28;20220;-79
2023/10/17 13:06:04;;;;;;;0.50;0.43;;;13.00;99.90;;;;;;5017804;28;20214;-82
2023/10/17 13:08:31;;;;;;;0.63;0.60;;;12.90;99.90;;;;;;5040086;28;20205;-83
2023/10/17 13:10:57;;;;;;;0.40;0.30;;;12.90;99.90;;;;;;5024654;28;20213;-83
2023/10/17 13:13:23;;;;;;;0.50;0.50;;;13.00;99.90;;;;;;5028212;28;20181;-81
2023/10/17 13:15:49;;;;;;;0.60;0.40;;;13.20;99.90;;;;;;5021227;28;20544;-80
2023/10/17 13:18:16;;;;;;;0.63;0.63;;;13.40;99.90;;;;;;5025055;28;20903;-80
2023/10/17 13:20:48;;;;;;;2.87;2.07;;;13.50;99.90;;;;;;5018665;28;20581;-82
2023/10/17 13:23:16;;;;;;;2.93;1.60;;;13.60;99.90;;;;;;5021175;28;21020;-79
2023/10/17 13:25:42;;;;;;;0.55;0.43;;;13.60;99.90;;;;;;5021778;28;20840;-79
2023/10/17 13:28:07;;;;;;;1.67;1.57;;;13.60;99.90;;;;;;5030147;28;20213;-82
2023/10/17 13:30:33;;;;;;;0.60;0.60;;;13.60;99.90;;;;;;5037344;28;20192;-81
2023/10/17 13:32:58;;;;;;;1.90;1.80;;;13.70;99.90;;;;;;5028839;28;20220;-82
2023/10/17 13:35:24;;;;;;;0.40;0.30;;;13.40;99.90;;;;;;5027794;28;20185;-81
2023/10/17 13:37:54;;;;;;;0.40;0.30;;;13.50;99.90;;;;;;5024695;28;20209;-80
2023/10/17 13:40:21;;;;;;;0.40;0.30;;;13.60;99.90;;;;;;5024618;28;20450;-83
2023/10/17 13:42:50;;;;;;;0.40;0.30;;;13.50;99.90;;;;;;5024253;28;20456;-82
2023/10/17 13:45:16;;;;;;;1.73;0.83;;;13.50;99.90;;;;;;5028416;28;20451;-78
2023/10/17 13:47:42;;;;;;;1.07;0.97;;;;;;;;;;5020680;28;20456;-80
2023/10/17 13:50:13;;;;;;;1.17;0.67;;;13.50;99.90;;;;;;5020327;28;20807;-82
2023/10/17 13:52:41;;;;;;;0.40;0.30;;;13.50;99.90;;;;;;5018621;28;20546;-80
2023/10/17 13:55:09;;;;;;;2.07;1.87;;;13.50;99.90;;;;;;5023375;28;20448;-78
2023/10/17 13:57:35;;;;;;;0.40;0.30;;;13.40;99.90;;;;;;5019106;28;20460;-82
2023/10/17 14:00:05;;;;;;;0.40;0.23;;;13.30;99.90;;;;;;5035213;28;20458;-83
2023/10/17 14:02:31;;;;;;;0.50;0.40;;;13.40;99.90;;;;;;5033933;28;20465;-77
2023/10/17 14:04:57;;;;;;;0.40;0.40;;;13.40;99.90;;;;;;5034988;28;21146;-81
2023/10/17 14:07:23;;;;;;;0.40;0.20;;;13.30;99.90;;;;;;5019712;28;20467;-81
2023/10/17 14:09:54;;;;;;;0.67;0.67;;;13.30;99.90;;;;;;5028624;28;20539;-78
2023/10/17 14:12:20;;;;;;;1.17;1.17;;;13.20;99.90;;;;;;5026202;28;21113;-79
2023/10/17 14:14:46;;;;;;;0.40;0.30;;;13.00;99.90;;;;;;5019564;28;20559;-82
2023/10/17 14:17:11;;;;;;;1.03;1.03;;;12.90;99.90;;;;;;5023573;28;20232;-80
2023/10/17 14:19:40;;;;;;;0.70;0.70;;;12.80;99.90;;;;;;5028498;28;20202;-83
2023/10/17 14:24:50;;;;;;;0.57;0.53;;;12.60;99.90;;;;;;5026835;28;20296;-85
2023/10/17 14:27:22;;;;;;;0.60;0.50;;;12.50;99.90;;;;;;5023238;28;20475;-83
2023/10/17 14:29:49;;;;;;;0.40;0.40;;;12.30;99.90;;;;;;5029533;28;20198;-81
2023/10/17 14:32:17;;;;;;;0.50;0.50;;;12.20;99.90;;;;;;5017667;28;20248;-82
2023/10/17 14:34:43;;;;;;;1.10;1.00;;;12.20;99.90;;;;;;5028638;28;20439;-80
2023/10/17 14:37:08;;;;;;;1.63;1.30;;;12.10;99.90;;;;;;5039730;28;20263;-82
2023/10/17 14:39:34;;;;;;;1.03;0.80;;;11.90;99.90;;;;;;5025632;28;20208;-82
2023/10/17 14:42:00;;;;;;;0.60;0.37;;;11.90;99.90;;;;;;5026687;28;20836;-81
2023/10/17 14:44:29;;;;;;;0.60;0.40;;;11.80;99.90;;;;;;5026665;28;20231;-81
2023/10/17 14:46:57;;;;;;;0.80;0.73;;;11.80;99.90;;;;;;5027243;28;20236;-80
2023/10/17 14:49:23;;;;;;;0.75;0.75;;;11.80;99.90;;;;;;5037387;28;20216;-84
2023/10/17 14:51:48;;;;;;;0.80;0.73;;;11.70;99.90;;;;;;4996534;28;20249;-83
2023/10/17 14:54:15;;;;;;;0.50;0.50;;;11.70;99.90;;;;;;5022467;28;20340;-82
2023/10/17 14:56:40;;;;;;;2.85;1.05;;;11.60;99.90;;;;;;5018023;28;20204;-84
2023/10/17 14:59:07;;;;;;;0.60;0.50;;;11.60;99.90;;;;;;5018865;28;20177;-84
2023/10/17 15:01:33;;;;;;;0.40;0.30;;;11.50;99.90;;;;;;5023539;28;20194;-81